createdAt,value
2023-03-05T00:01:13.191Z,97.34
2023-03-05T00:03:40.180Z,97.74
2023-03-05T00:06:07.412Z,97.49
2023-03-05T00:08:34.248Z,97.73
2023-03-05T00:11:06.643Z,97.94
2023-03-05T00:13:33.816Z,98.09
2023-03-05T00:16:06.449Z,98.09
2023-03-05T00:18:33.885Z,97.75
2023-03-05T00:21:00.662Z,98.50
2023-03-05T00:23:27.703Z,98.75
2023-03-05T00:25:54.202Z,98.88
2023-03-05T00:28:20.692Z,99.56
2023-03-05T00:30:47.525Z,99.28
2023-03-05T00:33:14.781Z,99.79
2023-03-05T00:35:46.424Z,99.93
2023-03-05T00:38:13.457Z,99.99
2023-03-05T00:40:41.502Z,100.00
2023-03-05T00:43:08.884Z,100.00
2023-03-05T00:45:35.679Z,100.00
2023-03-05T00:48:03.160Z,100.00
2023-03-05T00:50:29.658Z,99.94
2023-03-05T00:52:56.136Z,99.99
2023-03-05T00:55:22.707Z,99.94
2023-03-05T00:57:49.360Z,99.67
2023-03-05T01:00:16.548Z,99.70
2023-03-05T01:02:43.678Z,99.40
2023-03-05T01:05:14.164Z,99.70
2023-03-05T01:07:40.705Z,99.57
2023-03-05T01:10:11.881Z,99.25
2023-03-05T01:12:38.871Z,99.10
2023-03-05T01:15:06.628Z,99.05
2023-03-05T01:17:33.346Z,99.31
2023-03-05T01:20:00.019Z,99.19
2023-03-05T01:22:26.780Z,99.35
2023-03-05T01:24:53.571Z,99.55
2023-03-05T01:27:20.113Z,99.69
2023-03-05T01:29:46.672Z,99.78
2023-03-05T01:32:13.235Z,99.81
2023-03-05T01:34:41.993Z,99.88
2023-03-05T01:37:09.504Z,100.00
2023-03-05T01:39:36.428Z,100.00
2023-03-05T01:42:04.286Z,100.00
2023-03-05T01:44:32.033Z,100.00
2023-03-05T01:46:58.534Z,100.00
2023-03-05T01:49:33.585Z,100.00
2023-03-05T01:52:18.097Z,100.00
2023-03-05T01:54:54.287Z,100.00
2023-03-05T01:57:24.779Z,100.00
2023-03-05T01:59:56.550Z,100.00
2023-03-05T02:02:23.225Z,100.00
2023-03-05T02:04:54.885Z,100.00
2023-03-05T02:07:22.381Z,100.00
2023-03-05T02:09:49.139Z,100.00
2023-03-05T02:12:16.372Z,100.00
2023-03-05T02:14:46.614Z,100.00
2023-03-05T02:17:13.572Z,100.00
2023-03-05T02:19:48.174Z,100.00
2023-03-05T02:22:16.286Z,100.00
2023-03-05T02:24:42.786Z,100.00
2023-03-05T02:27:09.477Z,100.00
2023-03-05T02:29:40.924Z,100.00
2023-03-05T02:32:08.624Z,100.00
2023-03-05T02:34:36.110Z,100.00
2023-03-05T02:37:04.575Z,100.00
2023-03-05T02:39:33.288Z,100.00
2023-03-05T02:42:00.121Z,100.00
2023-03-05T02:44:27.693Z,100.00
2023-03-05T02:46:54.779Z,100.00
2023-03-05T02:49:21.407Z,100.00
2023-03-05T02:51:47.849Z,100.00
2023-03-05T02:54:14.512Z,100.00
2023-03-05T02:56:41.906Z,100.00
2023-03-05T02:59:08.400Z,100.00
2023-03-05T03:01:35.342Z,100.00
2023-03-05T03:04:01.922Z,100.00
2023-03-05T03:06:28.446Z,100.00
2023-03-05T03:08:54.935Z,100.00
2023-03-05T03:11:21.547Z,100.00
2023-03-05T03:13:48.094Z,100.00
2023-03-05T03:16:15.502Z,100.00
2023-03-05T03:18:42.486Z,100.00
2023-03-05T03:21:08.935Z,100.00
2023-03-05T03:23:35.633Z,100.00
2023-03-05T03:26:02.228Z,100.00
2023-03-05T03:28:28.745Z,100.00
2023-03-05T03:30:55.339Z,100.00
2023-03-05T03:33:22.344Z,100.00
2023-03-05T03:35:48.825Z,100.00
2023-03-05T03:38:15.350Z,100.00
2023-03-05T03:40:42.323Z,100.00
2023-03-05T03:43:08.932Z,100.00
2023-03-05T03:45:35.438Z,100.00
2023-03-05T03:48:02.121Z,100.00
2023-03-05T03:50:28.593Z,100.00
2023-03-05T03:52:55.149Z,100.00
2023-03-05T03:55:21.632Z,100.00
2023-03-05T03:57:48.061Z,100.00
2023-03-05T04:00:14.893Z,100.00
2023-03-05T04:02:42.948Z,100.00
2023-03-05T04:05:09.702Z,100.00
2023-03-05T04:07:36.199Z,100.00
2023-03-05T04:10:03.269Z,100.00
2023-03-05T04:12:29.741Z,100.00
2023-03-05T04:14:56.254Z,100.00
2023-03-05T04:17:22.843Z,100.00
2023-03-05T04:19:49.331Z,100.00
2023-03-05T04:22:17.670Z,100.00
2023-03-05T04:24:44.569Z,100.00
2023-03-05T04:27:11.223Z,100.00
2023-03-05T04:29:38.602Z,100.00
2023-03-05T04:32:05.377Z,100.00
2023-03-05T04:34:32.892Z,100.00
2023-03-05T04:36:59.504Z,100.00
2023-03-05T04:39:25.994Z,100.00
2023-03-05T04:41:52.457Z,100.00
2023-03-05T04:44:19.212Z,100.00
2023-03-05T04:46:46.069Z,100.00
2023-03-05T04:49:12.689Z,100.00
2023-03-05T04:51:39.172Z,100.00
2023-03-05T04:54:05.700Z,100.00
2023-03-05T04:56:32.153Z,100.00
2023-03-05T04:58:58.931Z,100.00
2023-03-05T05:01:25.819Z,100.00
2023-03-05T05:03:52.433Z,100.00
2023-03-05T05:06:18.898Z,100.00
2023-03-05T05:08:45.350Z,100.00
2023-03-05T05:11:13.934Z,100.00
2023-03-05T05:13:40.402Z,100.00
2023-03-05T05:16:07.619Z,100.00
2023-03-05T05:18:34.260Z,100.00
2023-03-05T05:21:00.889Z,100.00
2023-03-05T05:23:27.514Z,100.00
2023-03-05T05:26:01.743Z,100.00
2023-03-05T05:28:29.005Z,100.00
2023-03-05T05:30:55.657Z,100.00
2023-03-05T05:33:23.128Z,100.00
2023-03-05T05:35:50.066Z,100.00
2023-03-05T05:38:16.781Z,100.00
2023-03-05T05:40:43.282Z,100.00
2023-03-05T05:43:09.802Z,100.00
2023-03-05T05:45:38.562Z,100.00
2023-03-05T05:48:05.159Z,100.00
2023-03-05T05:50:31.616Z,100.00
2023-03-05T05:52:58.100Z,100.00
2023-03-05T05:55:24.582Z,100.00
2023-03-05T05:57:51.110Z,100.00
2023-03-05T06:00:18.114Z,100.00
2023-03-05T06:02:44.772Z,100.00
2023-03-05T06:05:13.457Z,100.00
2023-03-05T06:07:40.285Z,100.00
2023-03-05T06:10:07.708Z,100.00
2023-03-05T06:12:34.167Z,100.00
2023-03-05T06:15:00.650Z,100.00
2023-03-05T06:17:30.769Z,100.00
2023-03-05T06:19:58.390Z,100.00
2023-03-05T06:22:24.994Z,100.00
2023-03-05T06:24:51.478Z,100.00
2023-03-05T06:27:17.992Z,100.00
2023-03-05T06:29:44.465Z,100.00
2023-03-05T06:32:11.061Z,100.00
2023-03-05T06:34:37.805Z,100.00
2023-03-05T06:37:04.248Z,100.00
2023-03-05T06:39:31.624Z,100.00
2023-03-05T06:41:58.313Z,100.00
2023-03-05T06:44:25.681Z,100.00
2023-03-05T06:46:52.323Z,100.00
2023-03-05T06:49:18.872Z,100.00
2023-03-05T06:51:45.338Z,100.00
2023-03-05T06:54:14.708Z,100.00
2023-03-05T06:56:44.034Z,100.00
2023-03-05T06:59:12.462Z,100.00
2023-03-05T07:01:39.218Z,100.00
2023-03-05T07:04:06.741Z,100.00
2023-03-05T07:06:34.824Z,100.00
2023-03-05T07:09:02.004Z,100.00
2023-03-05T07:11:29.709Z,100.00
2023-03-05T07:13:56.184Z,100.00
2023-03-05T07:16:26.086Z,100.00
2023-03-05T07:18:53.181Z,100.00
2023-03-05T07:21:22.382Z,100.00
2023-03-05T07:23:49.351Z,100.00
2023-03-05T07:26:16.834Z,100.00
2023-03-05T07:28:43.986Z,100.00
2023-03-05T07:31:16.432Z,100.00
2023-03-05T07:33:43.000Z,100.00
2023-03-05T07:36:10.118Z,100.00
2023-03-05T07:38:37.223Z,100.00
2023-03-05T07:41:09.759Z,100.00
2023-03-05T07:43:36.434Z,100.00
2023-03-05T07:46:07.903Z,100.00
2023-03-05T07:48:34.517Z,100.00
2023-03-05T07:51:21.694Z,100.00
2023-03-05T07:53:50.060Z,100.00
2023-03-05T07:56:24.185Z,100.00
2023-03-05T07:58:50.713Z,100.00
2023-03-05T08:01:17.340Z,99.21
2023-03-05T08:03:44.225Z,99.36
2023-03-05T08:06:12.323Z,99.48
2023-03-05T08:08:38.912Z,99.28
2023-03-05T08:11:10.869Z,99.46
2023-03-05T08:13:37.552Z,98.23
2023-03-05T08:16:25.796Z,98.45
2023-03-05T08:18:56.068Z,98.01
2023-03-05T08:21:34.715Z,96.69
2023-03-05T08:24:04.148Z,97.52
2023-03-05T08:26:32.897Z,97.03
2023-03-05T08:28:59.937Z,98.05
2023-03-05T08:31:27.568Z,100.00
2023-03-05T08:33:56.758Z,100.00
2023-03-05T08:36:23.394Z,100.00
2023-03-05T08:38:50.661Z,100.00
2023-03-05T08:41:18.689Z,100.00
2023-03-05T08:43:45.155Z,100.00
2023-03-05T08:46:12.809Z,100.00
2023-03-05T08:48:39.368Z,100.00
2023-03-05T08:51:10.958Z,100.00
2023-03-05T08:53:37.467Z,99.47
2023-03-05T08:56:04.196Z,98.73
2023-03-05T08:58:30.914Z,97.25
2023-03-05T09:00:57.504Z,96.17
2023-03-05T09:03:24.005Z,96.01
2023-03-05T09:05:51.484Z,95.31
2023-03-05T09:08:19.769Z,94.98
2023-03-05T09:10:46.683Z,94.76
2023-03-05T09:13:13.175Z,94.82
2023-03-05T09:15:39.725Z,93.56
2023-03-05T09:18:08.939Z,92.79
2023-03-05T09:20:35.933Z,92.24
2023-03-05T09:23:02.888Z,90.36
2023-03-05T09:25:29.359Z,90.35
2023-03-05T09:27:55.854Z,90.37
2023-03-05T09:30:23.080Z,90.15
2023-03-05T09:32:51.013Z,89.18
2023-03-05T09:35:17.491Z,90.29
2023-03-05T09:37:44.001Z,88.61
2023-03-05T09:40:15.905Z,88.67
2023-03-05T09:43:01.423Z,88.64
2023-03-05T09:45:39.560Z,88.14
2023-03-05T09:48:35.468Z,86.97
2023-03-05T09:51:05.167Z,86.40
2023-03-05T09:53:43.021Z,84.71
2023-03-05T09:56:13.851Z,85.36
2023-03-05T09:58:54.600Z,84.49
2023-03-05T10:01:29.634Z,83.40
2023-03-05T10:04:25.821Z,81.70
2023-03-05T10:07:08.916Z,81.20
2023-03-05T10:09:59.050Z,78.87
2023-03-05T10:12:42.858Z,78.00
2023-03-05T10:15:52.052Z,76.56
2023-03-05T10:18:24.738Z,75.91
2023-03-05T10:20:56.771Z,76.04
2023-03-05T10:23:29.595Z,74.17
2023-03-05T10:26:17.798Z,74.76
2023-03-05T10:29:21.150Z,75.13
2023-03-05T10:31:56.683Z,74.89
2023-03-05T10:34:31.179Z,72.96
2023-03-05T10:37:22.510Z,70.74
2023-03-05T10:40:00.361Z,71.33
2023-03-05T10:42:45.629Z,72.18
2023-03-05T10:45:21.197Z,72.66
2023-03-05T10:48:39.110Z,71.75
2023-03-05T10:51:26.009Z,73.54
2023-03-05T10:53:58.055Z,73.23
2023-03-05T10:56:27.678Z,72.69
2023-03-05T10:58:54.822Z,74.14
2023-03-05T11:01:28.047Z,74.33
2023-03-05T11:03:58.204Z,73.38
2023-03-05T11:06:38.070Z,73.67
2023-03-05T11:09:32.179Z,74.72
2023-03-05T11:12:16.117Z,72.81
2023-03-05T11:15:02.673Z,73.92
2023-03-05T11:17:37.454Z,71.99
2023-03-05T11:20:23.075Z,72.13
2023-03-05T11:23:11.200Z,71.70
2023-03-05T11:26:02.213Z,73.33
2023-03-05T11:28:35.906Z,73.09
2023-03-05T11:31:07.720Z,73.11
2023-03-05T11:33:36.808Z,73.02
2023-03-05T11:36:12.194Z,73.42
2023-03-05T11:38:50.079Z,71.27
2023-03-05T11:41:21.103Z,70.68
2023-03-05T11:43:49.488Z,69.82
2023-03-05T11:46:16.544Z,70.26
2023-03-05T11:48:45.097Z,69.40
2023-03-05T11:51:36.352Z,69.15
2023-03-05T11:54:08.877Z,68.09
2023-03-05T11:56:37.444Z,68.66
2023-03-05T11:59:14.737Z,67.08
2023-03-05T12:01:46.740Z,68.02
2023-03-05T12:04:13.925Z,68.62
2023-03-05T12:06:45.987Z,69.05
2023-03-05T12:09:37.810Z,70.01
2023-03-05T12:12:36.294Z,70.69
2023-03-05T12:15:11.918Z,70.63
2023-03-05T12:17:54.756Z,70.70
2023-03-05T12:20:40.047Z,72.84
2023-03-05T12:23:12.358Z,74.24
2023-03-05T12:25:41.741Z,75.59
2023-03-05T12:28:15.406Z,74.52
2023-03-05T12:30:42.275Z,74.48
2023-03-05T12:33:32.939Z,73.55
2023-03-05T12:36:20.950Z,74.40
2023-03-05T12:38:53.845Z,73.82
2023-03-05T12:41:23.525Z,74.38
2023-03-05T12:44:05.182Z,74.99
2023-03-05T12:46:38.301Z,75.04
2023-03-05T12:49:20.377Z,75.18
2023-03-05T12:51:52.110Z,75.45
2023-03-05T12:54:39.816Z,75.61
2023-03-05T12:57:17.563Z,74.83
2023-03-05T13:00:10.865Z,74.58
2023-03-05T13:02:40.985Z,73.62
2023-03-05T13:05:21.641Z,73.16
2023-03-05T13:07:49.460Z,70.85
2023-03-05T13:10:29.308Z,68.93
2023-03-05T13:12:58.469Z,70.41
2023-03-05T13:15:26.509Z,70.52
2023-03-05T13:18:03.332Z,70.70
2023-03-05T13:20:38.721Z,68.05
2023-03-05T13:23:07.967Z,68.82
2023-03-05T13:25:34.533Z,68.96
2023-03-05T13:28:06.857Z,69.38
2023-03-05T13:30:34.738Z,69.63
2023-03-05T13:33:03.743Z,68.64
2023-03-05T13:35:32.426Z,68.00
2023-03-05T13:37:59.270Z,68.67
2023-03-05T13:40:31.846Z,66.70
2023-03-05T13:43:13.430Z,67.14
2023-03-05T13:45:40.088Z,66.72
2023-03-05T13:48:07.398Z,67.60
2023-03-05T13:50:37.623Z,68.24
2023-03-05T13:53:27.053Z,68.22
2023-03-05T13:56:00.218Z,67.97
2023-03-05T13:58:50.782Z,68.76
2023-03-05T14:01:42.551Z,69.35
2023-03-05T14:04:15.632Z,69.98
2023-03-05T14:06:52.101Z,70.48
2023-03-05T14:09:28.768Z,72.51
2023-03-05T14:12:00.721Z,72.89
2023-03-05T14:14:29.131Z,73.29
2023-03-05T14:16:56.271Z,74.00
2023-03-05T14:19:40.708Z,72.79
2023-03-05T14:22:40.795Z,72.50
2023-03-05T14:25:39.637Z,73.71
2023-03-05T14:28:24.457Z,74.67
2023-03-05T14:30:53.966Z,72.79
2023-03-05T14:33:26.497Z,72.94
2023-03-05T14:35:53.939Z,73.51
2023-03-05T14:38:24.599Z,71.80
2023-03-05T14:40:51.107Z,71.46
2023-03-05T14:43:17.641Z,71.38
2023-03-05T14:45:44.852Z,71.63
2023-03-05T14:48:13.995Z,70.90
2023-03-05T14:50:47.295Z,71.39
2023-03-05T14:53:17.183Z,71.25
2023-03-05T14:55:44.734Z,72.36
2023-03-05T14:58:14.972Z,71.81
2023-03-05T15:00:41.791Z,71.15
2023-03-05T15:03:12.352Z,70.71
2023-03-05T15:05:39.584Z,70.89
2023-03-05T15:08:06.364Z,72.12
2023-03-05T15:10:32.882Z,71.95
2023-03-05T15:12:59.371Z,72.29
2023-03-05T15:15:26.267Z,72.88
2023-03-05T15:17:54.946Z,72.93
2023-03-05T15:20:27.297Z,72.71
2023-03-05T15:22:54.246Z,73.45
2023-03-05T15:25:22.438Z,72.47
2023-03-05T15:27:50.849Z,72.97
2023-03-05T15:30:26.086Z,73.61
2023-03-05T15:32:54.866Z,74.43
2023-03-05T15:35:23.227Z,73.64
2023-03-05T15:37:49.791Z,73.03
2023-03-05T15:40:16.620Z,73.27
2023-03-05T15:42:43.336Z,73.04
2023-03-05T15:45:10.493Z,73.25
2023-03-05T15:47:36.922Z,73.47
2023-03-05T15:50:03.641Z,74.06
2023-03-05T15:52:30.158Z,74.38
2023-03-05T15:54:56.591Z,74.34
2023-03-05T15:57:23.650Z,74.07
2023-03-05T15:59:50.161Z,73.67
2023-03-05T16:02:16.794Z,73.19
2023-03-05T16:04:43.274Z,73.65
2023-03-05T16:07:11.786Z,74.20
2023-03-05T16:09:45.948Z,74.22
2023-03-05T16:12:18.028Z,75.18
2023-03-05T16:14:45.760Z,75.24
2023-03-05T16:17:13.428Z,75.54
2023-03-05T16:19:44.283Z,75.49
2023-03-05T16:22:10.766Z,75.35
2023-03-05T16:24:37.289Z,74.48
2023-03-05T16:27:04.692Z,75.34
2023-03-05T16:29:32.486Z,73.74
2023-03-05T16:32:02.274Z,72.54
2023-03-05T16:34:28.764Z,72.10
2023-03-05T16:36:55.477Z,73.11
2023-03-05T16:39:22.651Z,72.59
2023-03-05T16:41:50.161Z,72.95
2023-03-05T16:44:16.578Z,72.27
2023-03-05T16:46:47.259Z,72.36
2023-03-05T16:49:13.712Z,73.23
2023-03-05T16:51:40.216Z,72.89
2023-03-05T16:54:09.048Z,73.15
2023-03-05T16:56:36.669Z,72.57
2023-03-05T16:59:04.218Z,72.28
2023-03-05T17:01:31.077Z,72.70
2023-03-05T17:03:59.393Z,72.66
2023-03-05T17:06:28.844Z,73.35
2023-03-05T17:08:55.839Z,74.08
2023-03-05T17:11:22.504Z,74.08
2023-03-05T17:13:49.282Z,74.29
2023-03-05T17:16:17.839Z,80.06
2023-03-05T17:18:44.653Z,84.41
2023-03-05T17:21:12.770Z,85.64
2023-03-05T17:23:40.053Z,86.34
2023-03-05T17:26:09.205Z,86.73
2023-03-05T17:28:35.884Z,87.22
2023-03-05T17:31:03.892Z,87.46
2023-03-05T17:33:34.686Z,88.16
2023-03-05T17:36:01.526Z,88.01
2023-03-05T17:38:28.177Z,89.02
2023-03-05T17:40:54.894Z,87.98
2023-03-05T17:43:21.897Z,87.59
2023-03-05T17:45:48.785Z,87.63
2023-03-05T17:48:15.989Z,86.92
2023-03-05T17:50:44.821Z,87.84
2023-03-05T17:53:11.532Z,87.72
2023-03-05T17:55:39.984Z,87.72
2023-03-05T17:58:06.523Z,87.61
2023-03-05T18:00:33.431Z,88.92
2023-03-05T18:03:00.183Z,88.78
2023-03-05T18:05:27.802Z,90.63
2023-03-05T18:07:55.563Z,90.80
2023-03-05T18:10:24.939Z,90.42
2023-03-05T18:12:51.797Z,91.21
2023-03-05T18:15:21.367Z,91.78
2023-03-05T18:17:48.366Z,92.43
2023-03-05T18:20:41.818Z,92.94
2023-03-05T18:23:09.946Z,92.91
2023-03-05T18:25:36.547Z,93.31
2023-03-05T18:28:08.856Z,94.01
2023-03-05T18:30:36.413Z,93.58
2023-03-05T18:33:03.902Z,94.17
2023-03-05T18:35:30.963Z,93.67
2023-03-05T18:37:57.993Z,94.14
2023-03-05T18:40:26.717Z,93.84
2023-03-05T18:42:53.176Z,93.12
2023-03-05T18:45:22.255Z,93.47
2023-03-05T18:47:53.885Z,93.28
2023-03-05T18:50:22.626Z,93.55
2023-03-05T18:52:49.622Z,93.16
2023-03-05T18:55:19.246Z,93.56
2023-03-05T18:57:46.130Z,93.68
2023-03-05T19:00:18.422Z,93.42
2023-03-05T19:02:44.930Z,93.48
2023-03-05T19:05:14.064Z,93.84
2023-03-05T19:07:41.006Z,93.07
2023-03-05T19:10:09.858Z,93.27
2023-03-05T19:12:45.429Z,93.80
2023-03-05T19:15:13.254Z,93.51
2023-03-05T19:17:40.413Z,92.62
2023-03-05T19:20:08.181Z,92.29
2023-03-05T19:22:34.877Z,92.30
2023-03-05T19:25:01.775Z,92.27
2023-03-05T19:27:28.362Z,92.02
2023-03-05T19:29:54.949Z,92.80
2023-03-05T19:32:21.939Z,92.46
2023-03-05T19:34:49.106Z,92.08
2023-03-05T19:37:15.753Z,91.98
2023-03-05T19:39:42.428Z,91.62
2023-03-05T19:42:08.914Z,91.34
2023-03-05T19:44:35.479Z,90.98
2023-03-05T19:47:02.367Z,90.35
2023-03-05T19:49:28.861Z,89.88
2023-03-05T19:51:55.485Z,88.81
2023-03-05T19:54:22.911Z,88.92
2023-03-05T19:56:50.185Z,89.28
2023-03-05T19:59:18.706Z,89.31
2023-03-05T20:01:46.005Z,88.63
2023-03-05T20:04:15.628Z,88.86
2023-03-05T20:06:42.323Z,89.13
2023-03-05T20:09:09.743Z,89.16
2023-03-05T20:11:36.622Z,88.15
2023-03-05T20:14:03.706Z,88.98
2023-03-05T20:16:35.208Z,88.97
2023-03-05T20:19:03.136Z,88.53
2023-03-05T20:21:33.739Z,89.07
2023-03-05T20:24:04.739Z,88.85
2023-03-05T20:26:35.436Z,89.49
2023-03-05T20:29:04.753Z,89.14
2023-03-05T20:31:35.292Z,88.65
2023-03-05T20:34:01.959Z,88.35
2023-03-05T20:36:28.420Z,88.20
2023-03-05T20:38:55.793Z,88.54
2023-03-05T20:41:22.598Z,88.08
2023-03-05T20:43:50.656Z,87.65
2023-03-05T20:46:29.307Z,87.32
2023-03-05T20:48:59.079Z,87.69
2023-03-05T20:51:37.874Z,87.23
2023-03-05T20:54:10.036Z,87.78
2023-03-05T20:56:37.444Z,86.87
2023-03-05T20:59:08.488Z,87.28
2023-03-05T21:01:37.549Z,86.94
2023-03-05T21:04:04.453Z,86.80
2023-03-05T21:06:32.752Z,86.42
2023-03-05T21:08:59.877Z,86.55
2023-03-05T21:11:26.646Z,86.88
2023-03-05T21:13:53.652Z,86.07
2023-03-05T21:16:23.884Z,86.71
2023-03-05T21:18:51.200Z,86.77
2023-03-05T21:21:18.760Z,86.00
2023-03-05T21:23:46.206Z,85.90
2023-03-05T21:26:13.592Z,85.63
2023-03-05T21:28:40.556Z,86.15
2023-03-05T21:31:15.049Z,85.27
2023-03-05T21:33:45.049Z,85.25
2023-03-05T21:36:12.160Z,85.57
2023-03-05T21:38:38.966Z,85.50
2023-03-05T21:41:05.707Z,85.65
2023-03-05T21:43:32.560Z,85.42
2023-03-05T21:46:01.409Z,85.35
2023-03-05T21:48:27.955Z,84.61
2023-03-05T21:50:55.228Z,85.05
2023-03-05T21:53:22.160Z,85.07
2023-03-05T21:56:15.381Z,84.85
2023-03-05T21:58:41.816Z,85.12
2023-03-05T22:01:11.492Z,85.02
2023-03-05T22:03:40.800Z,85.36
2023-03-05T22:06:11.782Z,85.19
2023-03-05T22:08:38.353Z,85.10
2023-03-05T22:11:17.300Z,85.96
2023-03-05T22:13:44.320Z,85.91
2023-03-05T22:16:11.396Z,85.56
2023-03-05T22:18:37.996Z,86.01
2023-03-05T22:21:04.714Z,86.52
2023-03-05T22:23:36.862Z,86.90
2023-03-05T22:26:07.629Z,87.27
2023-03-05T22:28:35.790Z,87.72
2023-03-05T22:31:02.775Z,86.91
2023-03-05T22:33:29.499Z,87.54
2023-03-05T22:35:56.316Z,87.56
2023-03-05T22:38:23.136Z,87.32
2023-03-05T22:40:50.323Z,87.77
2023-03-05T22:43:18.262Z,88.04
2023-03-05T22:45:45.143Z,88.24
2023-03-05T22:48:11.990Z,88.04
2023-03-05T22:50:39.740Z,87.83
2023-03-05T22:53:06.294Z,88.09
2023-03-05T22:55:32.813Z,88.58
2023-03-05T22:57:59.262Z,88.28
2023-03-05T23:00:26.735Z,88.46
2023-03-05T23:02:53.965Z,88.18
2023-03-05T23:05:20.834Z,88.05
2023-03-05T23:07:47.405Z,88.12
2023-03-05T23:10:18.040Z,88.83
2023-03-05T23:12:49.289Z,88.39
2023-03-05T23:15:22.502Z,89.03
2023-03-05T23:17:49.631Z,89.39
2023-03-05T23:20:18.044Z,88.60
2023-03-05T23:22:45.112Z,89.17
2023-03-05T23:25:13.939Z,89.03
2023-03-05T23:27:40.834Z,88.93
2023-03-05T23:30:16.555Z,88.98
2023-03-05T23:32:45.269Z,89.50
2023-03-05T23:35:13.843Z,89.80
2023-03-05T23:37:41.215Z,89.75
2023-03-05T23:40:11.430Z,89.06
2023-03-05T23:42:38.466Z,89.25
2023-03-05T23:45:07.144Z,89.35
2023-03-05T23:47:36.938Z,89.58
2023-03-05T23:50:05.974Z,89.04
2023-03-05T23:52:32.672Z,88.84
2023-03-05T23:54:59.523Z,88.97
2023-03-05T23:57:25.998Z,88.40
2023-03-05T23:59:52.552Z,88.60
